createdAt,value
2019-03-16T00:00:27.088Z,57.79
2019-03-16T00:02:53.661Z,58.46
2019-03-16T00:05:20.234Z,58.75
2019-03-16T00:07:46.861Z,59.85
2019-03-16T00:10:13.432Z,60.55
2019-03-16T00:12:40.047Z,61.24
2019-03-16T00:15:06.628Z,61.16
2019-03-16T00:17:33.261Z,62.07
2019-03-16T00:19:59.830Z,62.52
2019-03-16T00:22:26.438Z,63.63
2019-03-16T00:24:53.186Z,63.57
2019-03-16T00:27:19.791Z,63.81
2019-03-16T00:29:46.361Z,65.02
2019-03-16T00:32:13.910Z,64.65
2019-03-16T00:34:40.601Z,64.15
2019-03-16T00:37:07.170Z,63.85
2019-03-16T00:39:33.776Z,63.61
2019-03-16T00:42:00.355Z,65.80
2019-03-16T00:44:26.932Z,65.44
2019-03-16T00:46:53.505Z,65.49
2019-03-16T00:49:20.095Z,66.16
2019-03-16T00:51:46.661Z,66.16
2019-03-16T00:54:13.242Z,67.72
2019-03-16T00:56:39.811Z,66.11
2019-03-16T00:59:06.387Z,65.95
2019-03-16T01:01:32.966Z,65.43
2019-03-16T01:03:59.547Z,65.22
2019-03-16T01:06:26.117Z,64.72
2019-03-16T01:08:52.687Z,64.43
2019-03-16T01:11:19.282Z,63.57
2019-03-16T01:13:45.874Z,63.03
2019-03-16T01:16:12.440Z,62.80
2019-03-16T01:18:39.036Z,62.21
2019-03-16T01:21:05.615Z,61.89
2019-03-16T01:23:32.232Z,61.86
2019-03-16T01:25:58.808Z,61.53
2019-03-16T01:28:27.030Z,61.22
2019-03-16T01:30:53.604Z,61.19
2019-03-16T01:33:20.315Z,60.75
2019-03-16T01:35:46.887Z,60.53
2019-03-16T01:38:13.493Z,59.86
2019-03-16T01:40:40.067Z,59.24
2019-03-16T01:43:06.659Z,59.00
2019-03-16T01:45:33.312Z,58.86
2019-03-16T01:47:59.905Z,58.82
2019-03-16T01:50:26.470Z,58.75
2019-03-16T01:52:53.117Z,58.48
2019-03-16T01:55:19.735Z,58.54
2019-03-16T01:57:46.338Z,58.64
2019-03-16T02:00:12.899Z,58.73
2019-03-16T02:02:39.555Z,58.73
2019-03-16T02:05:06.129Z,58.65
2019-03-16T02:07:32.713Z,58.48
2019-03-16T02:09:59.283Z,58.35
2019-03-16T02:12:25.875Z,58.13
2019-03-16T02:14:52.441Z,58.01
2019-03-16T02:17:19.033Z,58.00
2019-03-16T02:19:45.599Z,57.60
2019-03-16T02:22:12.264Z,57.55
2019-03-16T02:24:38.870Z,57.05
2019-03-16T02:27:05.447Z,56.93
2019-03-16T02:29:32.031Z,56.83
2019-03-16T02:31:58.609Z,56.63
2019-03-16T02:34:25.231Z,56.40
2019-03-16T02:36:51.851Z,56.37
2019-03-16T02:39:18.537Z,56.32
2019-03-16T02:41:45.109Z,56.24
2019-03-16T02:44:11.789Z,55.84
2019-03-16T02:46:38.363Z,55.89
2019-03-16T02:49:04.944Z,55.79
2019-03-16T02:51:31.539Z,55.92
2019-03-16T02:53:58.208Z,55.67
2019-03-16T02:56:24.781Z,55.76
2019-03-16T02:58:51.408Z,55.54
2019-03-16T03:01:17.981Z,55.68
2019-03-16T03:03:45.287Z,55.48
2019-03-16T03:06:11.877Z,55.40
2019-03-16T03:08:38.575Z,55.39
2019-03-16T03:11:05.138Z,55.29
2019-03-16T03:13:31.744Z,55.17
2019-03-16T03:15:58.319Z,54.88
2019-03-16T03:18:24.922Z,55.01
2019-03-16T03:20:51.498Z,54.87
2019-03-16T03:23:18.248Z,54.84
2019-03-16T03:25:44.861Z,54.32
2019-03-16T03:28:11.430Z,54.30
2019-03-16T03:30:38.005Z,54.02
2019-03-16T03:33:04.591Z,54.03
2019-03-16T03:35:31.156Z,54.08
2019-03-16T03:37:57.714Z,53.75
2019-03-16T03:40:24.299Z,53.70
2019-03-16T03:42:50.871Z,53.70
2019-03-16T03:45:17.444Z,53.65
2019-03-16T03:47:44.026Z,53.23
2019-03-16T03:50:10.615Z,54.74
2019-03-16T03:52:37.213Z,55.08
2019-03-16T03:55:03.848Z,57.54
2019-03-16T03:57:30.426Z,59.64
2019-03-16T03:59:57.006Z,61.10
2019-03-16T04:02:23.590Z,62.14
2019-03-16T04:04:50.159Z,61.95
2019-03-16T04:07:20.086Z,63.40
2019-03-16T04:09:45.075Z,64.72
2019-03-16T04:12:11.640Z,65.27
2019-03-16T04:14:38.233Z,66.07
2019-03-16T04:17:04.813Z,66.08
2019-03-16T04:19:31.385Z,67.14
2019-03-16T04:21:57.956Z,67.51
2019-03-16T04:24:24.572Z,66.97
2019-03-16T04:26:51.147Z,67.86
2019-03-16T04:29:17.741Z,66.97
2019-03-16T04:31:44.318Z,67.42
2019-03-16T04:34:10.900Z,67.83
2019-03-16T04:36:37.480Z,66.96
2019-03-16T04:39:04.088Z,66.88
2019-03-16T04:41:30.663Z,67.18
2019-03-16T04:43:57.279Z,67.08
2019-03-16T04:46:23.845Z,66.91
2019-03-16T04:48:50.495Z,66.88
2019-03-16T04:51:17.075Z,66.70
2019-03-16T04:53:43.641Z,66.39
2019-03-16T04:56:10.210Z,66.49
2019-03-16T04:58:36.785Z,66.48
2019-03-16T05:01:03.359Z,66.50
2019-03-16T05:03:29.928Z,66.98
2019-03-16T05:05:56.510Z,66.99
2019-03-16T05:08:23.067Z,66.43
2019-03-16T05:10:49.642Z,67.00
2019-03-16T05:13:16.205Z,67.37
2019-03-16T05:15:42.781Z,66.73
2019-03-16T05:18:09.352Z,66.92
2019-03-16T05:20:35.918Z,66.18
2019-03-16T05:23:02.495Z,66.20
2019-03-16T05:25:29.089Z,65.69
2019-03-16T05:27:55.666Z,66.24
2019-03-16T05:30:22.277Z,66.21
2019-03-16T05:32:48.845Z,65.79
2019-03-16T05:35:15.456Z,65.98
2019-03-16T05:37:42.034Z,65.59
2019-03-16T05:40:08.644Z,65.75
2019-03-16T05:42:35.217Z,65.40
2019-03-16T05:45:01.812Z,65.75
2019-03-16T05:47:28.379Z,65.14
2019-03-16T05:49:54.970Z,65.57
2019-03-16T05:52:21.565Z,65.18
2019-03-16T05:54:48.186Z,64.99
2019-03-16T05:57:14.752Z,64.82
2019-03-16T05:59:41.347Z,64.69
2019-03-16T06:02:07.922Z,64.74
2019-03-16T06:04:34.515Z,64.17
2019-03-16T06:07:01.095Z,62.59
2019-03-16T06:09:27.708Z,62.37
2019-03-16T06:11:54.302Z,61.70
2019-03-16T06:14:20.870Z,60.74
2019-03-16T06:16:47.447Z,59.96
2019-03-16T06:19:14.026Z,59.92
2019-03-16T06:21:40.590Z,59.57
2019-03-16T06:24:07.226Z,58.75
2019-03-16T06:26:33.807Z,58.17
2019-03-16T06:29:00.457Z,56.58
2019-03-16T06:31:27.029Z,55.74
2019-03-16T06:33:53.680Z,55.49
2019-03-16T06:36:20.257Z,55.51
2019-03-16T06:38:46.834Z,54.51
2019-03-16T06:41:13.402Z,55.33
2019-03-16T06:43:39.981Z,54.76
2019-03-16T06:46:06.546Z,54.71
2019-03-16T06:48:33.125Z,54.32
2019-03-16T06:50:59.691Z,53.85
2019-03-16T06:53:26.266Z,54.15
2019-03-16T06:55:52.839Z,53.79
2019-03-16T06:58:19.419Z,53.35
2019-03-16T07:00:45.996Z,53.50
2019-03-16T07:03:13.813Z,54.00
2019-03-16T07:05:40.415Z,53.64
2019-03-16T07:08:06.986Z,52.98
2019-03-16T07:10:33.583Z,52.35
2019-03-16T07:13:00.156Z,50.89
2019-03-16T07:15:26.726Z,51.87
2019-03-16T07:17:53.374Z,51.83
2019-03-16T07:20:19.976Z,51.62
2019-03-16T07:22:46.548Z,50.57
2019-03-16T07:25:13.161Z,50.99
2019-03-16T07:27:39.723Z,51.09
2019-03-16T07:30:06.333Z,51.30
2019-03-16T07:32:32.896Z,51.06
2019-03-16T07:34:59.515Z,51.30
2019-03-16T07:37:26.086Z,50.55
2019-03-16T07:39:53.775Z,50.12
2019-03-16T07:42:20.342Z,50.06
2019-03-16T07:44:47.027Z,49.04
2019-03-16T07:47:13.640Z,48.41
2019-03-16T07:49:40.208Z,47.95
2019-03-16T07:52:06.787Z,48.18
2019-03-16T07:54:33.400Z,47.69
2019-03-16T07:56:59.953Z,46.03
2019-03-16T07:59:26.531Z,46.72
2019-03-16T08:01:53.145Z,46.62
2019-03-16T08:04:19.714Z,47.49
2019-03-16T08:06:46.312Z,47.42
2019-03-16T08:09:12.900Z,48.22
2019-03-16T08:11:39.668Z,48.05
2019-03-16T08:14:06.242Z,48.27
2019-03-16T08:16:32.852Z,48.54
2019-03-16T08:18:59.430Z,48.41
2019-03-16T08:21:26.040Z,47.69
2019-03-16T08:23:53.853Z,46.84
2019-03-16T08:26:20.621Z,46.15
2019-03-16T08:28:47.184Z,46.43
2019-03-16T08:31:13.837Z,45.77
2019-03-16T08:33:40.419Z,46.54
2019-03-16T08:36:07.032Z,46.56
2019-03-16T08:38:33.633Z,46.13
2019-03-16T08:41:00.251Z,45.71
2019-03-16T08:43:26.829Z,45.48
2019-03-16T08:45:53.419Z,44.73
2019-03-16T08:48:23.069Z,44.86
2019-03-16T08:50:48.357Z,45.26
2019-03-16T08:53:14.929Z,45.61
2019-03-16T08:55:41.547Z,44.62
2019-03-16T08:58:08.164Z,45.14
2019-03-16T09:00:34.768Z,45.23
2019-03-16T09:03:01.342Z,44.77
2019-03-16T09:05:27.912Z,44.42
2019-03-16T09:07:54.492Z,44.49
2019-03-16T09:10:21.054Z,44.25
2019-03-16T09:12:54.994Z,44.82
2019-03-16T09:15:15.936Z,44.11
2019-03-16T09:17:42.511Z,43.93
2019-03-16T09:20:09.089Z,44.10
2019-03-16T09:22:35.669Z,44.57
2019-03-16T09:25:02.275Z,43.86
2019-03-16T09:27:31.327Z,43.96
2019-03-16T09:29:57.150Z,43.79
2019-03-16T09:32:23.719Z,43.85
2019-03-16T09:34:50.393Z,43.90
2019-03-16T09:37:16.957Z,43.63
2019-03-16T09:39:43.529Z,43.26
2019-03-16T09:42:10.110Z,43.23
2019-03-16T09:44:36.687Z,42.64
2019-03-16T09:47:03.261Z,42.47
2019-03-16T09:49:29.835Z,42.45
2019-03-16T09:51:56.419Z,43.07
2019-03-16T09:54:22.995Z,42.62
2019-03-16T09:57:00.500Z,42.51
2019-03-16T09:59:17.866Z,43.05
2019-03-16T10:01:44.441Z,42.81
2019-03-16T10:04:11.094Z,43.02
2019-03-16T10:06:37.685Z,43.03
2019-03-16T10:09:04.255Z,42.95
2019-03-16T10:11:30.871Z,43.17
2019-03-16T10:13:57.447Z,42.90
2019-03-16T10:16:24.035Z,43.08
2019-03-16T10:18:50.611Z,43.20
2019-03-16T10:21:18.833Z,43.41
2019-03-16T10:23:45.667Z,42.89
2019-03-16T10:26:12.272Z,42.82
2019-03-16T10:28:43.656Z,42.45
2019-03-16T10:31:07.168Z,42.26
2019-03-16T10:33:33.797Z,41.93
2019-03-16T10:36:00.384Z,41.75
2019-03-16T10:38:26.963Z,41.64
2019-03-16T10:40:53.539Z,41.50
2019-03-16T10:43:20.118Z,40.87
2019-03-16T10:45:46.680Z,41.24
2019-03-16T10:48:13.317Z,40.63
2019-03-16T10:50:40.487Z,40.67
2019-03-16T10:53:07.474Z,40.80
2019-03-16T10:55:34.088Z,41.04
2019-03-16T10:58:00.696Z,40.83
2019-03-16T11:00:27.274Z,40.92
2019-03-16T11:02:53.898Z,40.08
2019-03-16T11:05:20.477Z,40.42
2019-03-16T11:07:47.316Z,39.58
2019-03-16T11:10:13.898Z,39.52
2019-03-16T11:12:40.501Z,39.62
2019-03-16T11:15:07.155Z,40.14
2019-03-16T11:17:33.835Z,40.02
2019-03-16T11:20:00.446Z,40.33
2019-03-16T11:22:27.084Z,40.47
2019-03-16T11:24:53.658Z,40.43
2019-03-16T11:27:20.267Z,40.23
2019-03-16T11:29:46.847Z,39.72
2019-03-16T11:32:15.411Z,39.44
2019-03-16T11:34:41.740Z,40.16
2019-03-16T11:37:08.340Z,39.38
2019-03-16T11:39:34.914Z,39.68
2019-03-16T11:42:01.541Z,39.24
2019-03-16T11:44:28.110Z,39.52
2019-03-16T11:46:54.699Z,38.84
2019-03-16T11:49:21.268Z,38.77
2019-03-16T11:51:47.859Z,38.57
2019-03-16T11:54:14.433Z,38.19
2019-03-16T11:56:41.040Z,37.72
2019-03-16T11:59:07.705Z,37.04
2019-03-16T12:01:34.387Z,37.12
2019-03-16T12:04:00.968Z,36.39
2019-03-16T12:06:27.540Z,35.51
2019-03-16T12:08:54.124Z,36.38
2019-03-16T12:11:20.703Z,36.61
2019-03-16T12:13:47.274Z,35.82
2019-03-16T12:16:13.855Z,35.18
2019-03-16T12:18:40.429Z,35.63
2019-03-16T12:21:07.001Z,36.39
2019-03-16T12:23:34.596Z,35.44
2019-03-16T12:26:01.175Z,34.79
2019-03-16T12:28:27.757Z,34.83
2019-03-16T12:30:54.335Z,34.18
2019-03-16T12:33:20.906Z,34.22
2019-03-16T12:35:47.492Z,34.76
2019-03-16T12:38:14.064Z,35.24
2019-03-16T12:40:40.650Z,35.13
2019-03-16T12:43:07.230Z,34.62
2019-03-16T12:45:33.831Z,34.70
2019-03-16T12:48:00.394Z,34.39
2019-03-16T12:50:27.046Z,35.08
2019-03-16T12:52:53.632Z,34.04
2019-03-16T12:55:20.204Z,34.17
2019-03-16T12:57:48.139Z,34.17
2019-03-16T13:00:15.143Z,32.46
2019-03-16T13:02:41.762Z,33.10
2019-03-16T13:05:08.364Z,33.30
2019-03-16T13:07:34.953Z,34.23
2019-03-16T13:10:01.535Z,35.11
2019-03-16T13:12:28.152Z,33.88
2019-03-16T13:14:54.738Z,34.57
2019-03-16T13:17:21.382Z,34.78
2019-03-16T13:19:47.949Z,34.99
2019-03-16T13:22:14.549Z,34.91
2019-03-16T13:24:41.121Z,35.45
2019-03-16T13:27:08.737Z,35.78
2019-03-16T13:29:37.561Z,34.93
2019-03-16T13:32:04.134Z,34.61
2019-03-16T13:34:30.709Z,34.52
2019-03-16T13:36:57.298Z,35.23
2019-03-16T13:39:23.877Z,35.12
2019-03-16T13:41:50.534Z,34.72
2019-03-16T13:44:17.108Z,34.79
2019-03-16T13:46:43.684Z,34.99
2019-03-16T13:49:10.263Z,34.54
2019-03-16T13:51:36.837Z,33.82
2019-03-16T13:54:03.432Z,33.64
2019-03-16T13:56:30.001Z,33.36
2019-03-16T13:58:56.761Z,33.51
2019-03-16T14:01:23.344Z,34.24
2019-03-16T14:03:49.925Z,34.08
2019-03-16T14:06:16.505Z,33.83
2019-03-16T14:08:43.087Z,34.32
2019-03-16T14:11:09.681Z,34.21
2019-03-16T14:13:36.250Z,34.23
2019-03-16T14:16:03.214Z,33.38
2019-03-16T14:18:29.795Z,33.48
2019-03-16T14:20:56.422Z,32.67
2019-03-16T14:23:23.076Z,33.13
2019-03-16T14:25:49.669Z,32.85
2019-03-16T14:28:16.621Z,32.42
2019-03-16T14:30:45.198Z,32.80
2019-03-16T14:33:11.483Z,32.92
2019-03-16T14:35:38.066Z,32.75
2019-03-16T14:38:04.636Z,32.19
2019-03-16T14:40:31.239Z,32.63
2019-03-16T14:42:57.870Z,32.56
2019-03-16T14:45:24.722Z,33.11
2019-03-16T14:47:51.304Z,33.45
2019-03-16T14:50:17.879Z,33.14
2019-03-16T14:52:44.461Z,33.46
2019-03-16T14:55:11.036Z,33.99
2019-03-16T14:57:37.661Z,34.63
2019-03-16T15:00:04.251Z,34.84
2019-03-16T15:02:30.828Z,35.22
2019-03-16T15:04:57.463Z,35.37
2019-03-16T15:07:24.082Z,35.76
2019-03-16T15:09:50.813Z,36.09
2019-03-16T15:12:17.393Z,36.02
2019-03-16T15:14:44.003Z,36.11
2019-03-16T15:17:10.577Z,36.03
2019-03-16T15:19:37.194Z,35.60
2019-03-16T15:22:03.765Z,35.36
2019-03-16T15:24:30.378Z,35.16
2019-03-16T15:26:56.951Z,34.06
2019-03-16T15:29:23.575Z,34.07
2019-03-16T15:31:50.147Z,33.39
2019-03-16T15:34:18.631Z,33.12
2019-03-16T15:36:45.235Z,32.46
2019-03-16T15:39:11.904Z,32.85
2019-03-16T15:41:38.510Z,33.02
2019-03-16T15:44:05.197Z,33.08
2019-03-16T15:46:31.757Z,33.24
2019-03-16T15:48:58.368Z,33.89
2019-03-16T15:51:24.951Z,34.22
2019-03-16T15:53:51.560Z,34.67
2019-03-16T15:56:18.219Z,34.95
2019-03-16T15:58:45.014Z,34.90
2019-03-16T16:01:11.596Z,35.16
2019-03-16T16:03:38.219Z,35.44
2019-03-16T16:06:06.868Z,35.69
2019-03-16T16:08:33.550Z,35.98
2019-03-16T16:11:01.436Z,36.22
2019-03-16T16:13:28.270Z,36.44
2019-03-16T16:15:54.850Z,36.55
2019-03-16T16:18:22.443Z,36.83
2019-03-16T16:20:49.063Z,37.08
2019-03-16T16:23:17.489Z,37.28
2019-03-16T16:25:44.062Z,37.35
2019-03-16T16:28:10.870Z,37.55
2019-03-16T16:30:37.611Z,37.71
2019-03-16T16:33:04.182Z,37.84
2019-03-16T16:35:30.771Z,38.06
2019-03-16T16:37:57.354Z,38.17
2019-03-16T16:40:23.930Z,38.22
2019-03-16T16:42:50.499Z,38.36
2019-03-16T16:45:17.083Z,38.62
2019-03-16T16:47:43.660Z,38.69
2019-03-16T16:50:10.257Z,38.89
2019-03-16T16:52:36.824Z,39.01
2019-03-16T16:55:03.425Z,39.15
2019-03-16T16:57:30.010Z,39.25
2019-03-16T16:59:58.424Z,39.28
2019-03-16T17:02:24.926Z,39.47
2019-03-16T17:04:51.529Z,39.62
2019-03-16T17:07:18.098Z,39.82
2019-03-16T17:09:44.702Z,39.85
2019-03-16T17:12:11.280Z,40.09
2019-03-16T17:14:37.924Z,40.32
2019-03-16T17:17:04.587Z,40.28
2019-03-16T17:19:31.256Z,40.39
2019-03-16T17:21:58.902Z,40.67
2019-03-16T17:24:25.514Z,40.68
2019-03-16T17:26:52.084Z,41.10
2019-03-16T17:29:18.781Z,40.88
2019-03-16T17:31:45.366Z,40.84
2019-03-16T17:34:11.985Z,41.02
2019-03-16T17:36:38.563Z,41.23
2019-03-16T17:39:05.173Z,41.18
2019-03-16T17:41:31.744Z,41.01
2019-03-16T17:43:58.374Z,41.37
2019-03-16T17:46:24.944Z,41.58
2019-03-16T17:48:51.549Z,41.56
2019-03-16T17:51:18.123Z,41.62
2019-03-16T17:53:46.898Z,41.97
2019-03-16T17:56:13.034Z,41.91
2019-03-16T17:58:39.606Z,42.10
2019-03-16T18:01:06.179Z,42.41
2019-03-16T18:03:32.747Z,42.25
2019-03-16T18:05:59.324Z,42.46
2019-03-16T18:08:26.073Z,42.58
2019-03-16T18:10:52.638Z,43.10
2019-03-16T18:13:19.222Z,43.12
2019-03-16T18:15:45.804Z,43.57
2019-03-16T18:18:12.373Z,43.38
2019-03-16T18:20:38.957Z,44.03
2019-03-16T18:23:05.570Z,44.36
2019-03-16T18:25:32.195Z,44.63
2019-03-16T18:27:58.776Z,44.33
2019-03-16T18:30:25.416Z,44.37
2019-03-16T18:32:52.006Z,45.22
2019-03-16T18:35:18.579Z,45.97
2019-03-16T18:37:45.158Z,46.01
2019-03-16T18:40:11.782Z,45.89
2019-03-16T18:42:38.342Z,46.05
2019-03-16T18:45:05.997Z,46.65
2019-03-16T18:47:32.630Z,46.66
2019-03-16T18:49:59.298Z,46.33
2019-03-16T18:52:25.900Z,46.85
2019-03-16T18:54:52.499Z,47.03
2019-03-16T18:57:19.077Z,46.96
2019-03-16T18:59:45.703Z,46.90
2019-03-16T19:02:20.582Z,47.28
2019-03-16T19:04:40.626Z,47.21
2019-03-16T19:07:07.288Z,47.14
2019-03-16T19:09:34.016Z,47.48
2019-03-16T19:12:00.601Z,47.62
2019-03-16T19:14:27.209Z,47.50
2019-03-16T19:16:53.773Z,47.89
2019-03-16T19:19:20.375Z,48.18
2019-03-16T19:21:47.277Z,48.24
2019-03-16T19:24:15.741Z,47.87
2019-03-16T19:26:42.318Z,48.08
2019-03-16T19:29:08.888Z,47.94
2019-03-16T19:31:35.457Z,48.44
2019-03-16T19:34:02.036Z,48.05
2019-03-16T19:36:28.614Z,48.15
2019-03-16T19:38:55.182Z,48.14
2019-03-16T19:41:22.738Z,48.65
2019-03-16T19:43:50.433Z,49.01
2019-03-16T19:46:17.192Z,48.88
2019-03-16T19:48:43.770Z,48.65
2019-03-16T19:51:10.349Z,49.46
2019-03-16T19:53:36.940Z,49.06
2019-03-16T19:56:03.493Z,49.31
2019-03-16T19:58:30.163Z,49.36
2019-03-16T20:00:56.847Z,49.77
2019-03-16T20:03:23.421Z,49.44
2019-03-16T20:05:49.995Z,49.81
2019-03-16T20:08:16.594Z,49.52
2019-03-16T20:10:43.153Z,49.52
2019-03-16T20:13:09.724Z,49.62
2019-03-16T20:15:36.389Z,49.33
2019-03-16T20:18:02.958Z,49.57
2019-03-16T20:20:29.547Z,49.97
2019-03-16T20:22:56.106Z,49.61
2019-03-16T20:25:22.690Z,49.69
2019-03-16T20:27:49.258Z,49.46
2019-03-16T20:30:15.875Z,49.87
2019-03-16T20:32:42.447Z,50.04
2019-03-16T20:35:09.053Z,50.07
2019-03-16T20:37:35.620Z,50.04
2019-03-16T20:40:02.217Z,49.83
2019-03-16T20:42:28.781Z,49.65
2019-03-16T20:44:55.386Z,50.41
2019-03-16T20:47:21.954Z,49.79
2019-03-16T20:49:51.971Z,49.82
2019-03-16T20:52:18.569Z,49.95
2019-03-16T20:54:45.143Z,49.92
2019-03-16T20:57:11.720Z,49.95
2019-03-16T20:59:38.296Z,49.69
2019-03-16T21:02:04.876Z,49.99
2019-03-16T21:04:31.454Z,49.66
2019-03-16T21:06:58.027Z,49.65
2019-03-16T21:09:24.637Z,49.98
2019-03-16T21:11:51.211Z,49.73
2019-03-16T21:14:17.794Z,49.63
2019-03-16T21:16:44.349Z,49.65
2019-03-16T21:19:10.921Z,49.58
2019-03-16T21:21:37.506Z,49.56
2019-03-16T21:24:04.076Z,49.56
2019-03-16T21:26:30.655Z,49.48
2019-03-16T21:28:57.233Z,49.41
2019-03-16T21:31:23.805Z,49.47
2019-03-16T21:33:50.373Z,49.29
2019-03-16T21:36:16.989Z,49.34
2019-03-16T21:38:43.574Z,49.54
2019-03-16T21:41:10.183Z,49.65
2019-03-16T21:43:36.757Z,49.59
2019-03-16T21:46:03.376Z,49.78
2019-03-16T21:48:29.957Z,49.67
2019-03-16T21:50:56.557Z,49.49
2019-03-16T21:53:32.313Z,49.59
2019-03-16T21:55:58.989Z,49.72
2019-03-16T21:58:25.554Z,50.31
2019-03-16T22:00:53.183Z,49.79
2019-03-16T22:03:19.751Z,49.73
2019-03-16T22:05:46.342Z,49.81
2019-03-16T22:08:12.918Z,49.78
2019-03-16T22:10:39.521Z,50.13
2019-03-16T22:13:06.101Z,49.71
2019-03-16T22:15:32.724Z,50.14
2019-03-16T22:17:59.297Z,49.79
2019-03-16T22:20:25.907Z,49.95
2019-03-16T22:22:52.491Z,49.88
2019-03-16T22:25:19.061Z,49.67
2019-03-16T22:27:45.676Z,50.19
2019-03-16T22:30:12.241Z,50.13
2019-03-16T22:32:38.813Z,50.32
2019-03-16T22:35:08.900Z,50.37
2019-03-16T22:37:34.809Z,50.56
2019-03-16T22:40:01.388Z,50.58
2019-03-16T22:42:27.955Z,50.25
2019-03-16T22:44:54.605Z,50.28
2019-03-16T22:47:21.188Z,50.28
2019-03-16T22:49:47.754Z,50.34
2019-03-16T22:52:14.316Z,50.56
2019-03-16T22:54:40.903Z,51.50
2019-03-16T22:57:07.467Z,50.49
2019-03-16T22:59:34.089Z,50.82
2019-03-16T23:02:00.664Z,51.00
2019-03-16T23:04:27.230Z,50.78
2019-03-16T23:06:53.811Z,50.48
2019-03-16T23:09:20.387Z,50.53
2019-03-16T23:11:46.967Z,50.79
2019-03-16T23:14:13.544Z,50.66
2019-03-16T23:16:40.119Z,50.57
2019-03-16T23:19:06.694Z,51.09
2019-03-16T23:21:33.345Z,51.11
2019-03-16T23:23:59.999Z,51.24
2019-03-16T23:26:37.745Z,53.16
2019-03-16T23:28:54.913Z,51.62
2019-03-16T23:31:21.528Z,53.74
2019-03-16T23:33:48.097Z,52.09
2019-03-16T23:36:14.813Z,53.74
2019-03-16T23:38:41.389Z,52.62
2019-03-16T23:41:07.980Z,53.42
2019-03-16T23:43:34.560Z,52.48
2019-03-16T23:46:01.135Z,52.36
2019-03-16T23:48:27.711Z,52.64
2019-03-16T23:50:54.361Z,53.15
2019-03-16T23:53:20.942Z,53.18
2019-03-16T23:55:47.514Z,52.98
2019-03-16T23:58:14.094Z,53.24
